createdAt,value
2022-10-03T00:00:26.140Z,100.00
2022-10-03T00:03:34.545Z,100.00
2022-10-03T00:06:10.734Z,100.00
2022-10-03T00:09:15.602Z,100.00
2022-10-03T00:12:02.395Z,100.00
2022-10-03T00:14:54.765Z,100.00
2022-10-03T00:18:04.510Z,100.00
2022-10-03T00:20:42.539Z,100.00
2022-10-03T00:23:18.945Z,100.00
2022-10-03T00:25:56.974Z,100.00
2022-10-03T00:28:42.044Z,100.00
2022-10-03T00:31:16.592Z,100.00
2022-10-03T00:33:52.707Z,100.00
2022-10-03T00:36:38.042Z,100.00
2022-10-03T00:39:22.411Z,100.00
2022-10-03T00:42:03.043Z,100.00
2022-10-03T00:45:12.011Z,100.00
2022-10-03T00:47:57.265Z,100.00
2022-10-03T00:50:57.806Z,100.00
2022-10-03T00:53:30.319Z,100.00
2022-10-03T00:56:10.165Z,100.00
2022-10-03T00:58:53.971Z,100.00
2022-10-03T01:01:43.694Z,100.00
2022-10-03T01:04:38.272Z,100.00
2022-10-03T01:07:12.714Z,100.00
2022-10-03T01:09:42.134Z,100.00
2022-10-03T01:12:31.846Z,100.00
2022-10-03T01:15:16.368Z,100.00
2022-10-03T01:17:54.840Z,100.00
2022-10-03T01:20:39.603Z,100.00
2022-10-03T01:23:43.099Z,100.00
2022-10-03T01:26:24.788Z,100.00
2022-10-03T01:29:18.262Z,100.00
2022-10-03T01:31:50.211Z,100.00
2022-10-03T01:34:25.806Z,100.00
2022-10-03T01:37:05.594Z,100.00
2022-10-03T01:39:36.603Z,100.00
2022-10-03T01:42:20.315Z,100.00
2022-10-03T01:45:05.210Z,100.00
2022-10-03T01:47:41.063Z,100.00
2022-10-03T01:50:19.734Z,100.00
2022-10-03T01:52:58.578Z,100.00
2022-10-03T01:55:55.465Z,100.00
2022-10-03T01:58:36.085Z,100.00
2022-10-03T02:01:29.005Z,100.00
2022-10-03T02:04:06.787Z,100.00
2022-10-03T02:06:54.978Z,100.00
2022-10-03T02:10:03.737Z,100.00
2022-10-03T02:13:02.929Z,100.00
2022-10-03T02:15:43.909Z,100.00
2022-10-03T02:18:26.206Z,100.00
2022-10-03T02:21:24.122Z,100.00
2022-10-03T02:24:08.149Z,100.00
2022-10-03T02:26:50.084Z,100.00
2022-10-03T02:29:19.553Z,100.00
2022-10-03T02:32:23.953Z,100.00
2022-10-03T02:35:10.516Z,100.00
2022-10-03T02:38:11.015Z,100.00
2022-10-03T02:41:08.224Z,100.00
2022-10-03T02:43:56.304Z,100.00
2022-10-03T02:46:40.890Z,100.00
2022-10-03T02:49:33.742Z,100.00
2022-10-03T02:52:29.367Z,100.00
2022-10-03T02:55:22.835Z,100.00
2022-10-03T02:57:55.486Z,100.00
2022-10-03T03:00:39.894Z,100.00
2022-10-03T03:03:43.840Z,100.00
2022-10-03T03:06:35.547Z,100.00
2022-10-03T03:09:09.005Z,100.00
2022-10-03T03:11:59.187Z,100.00
2022-10-03T03:14:49.091Z,100.00
2022-10-03T03:17:34.565Z,100.00
2022-10-03T03:20:29.017Z,100.00
2022-10-03T03:23:01.882Z,100.00
2022-10-03T03:25:43.798Z,100.00
2022-10-03T03:28:25.351Z,100.00
2022-10-03T03:31:39.524Z,100.00
2022-10-03T03:34:30.745Z,100.00
2022-10-03T03:37:11.021Z,100.00
2022-10-03T03:39:51.769Z,100.00
2022-10-03T03:42:30.661Z,100.00
2022-10-03T03:45:31.029Z,100.00
2022-10-03T03:48:15.748Z,100.00
2022-10-03T03:51:11.430Z,100.00
2022-10-03T03:53:38.128Z,100.00
2022-10-03T03:56:43.474Z,100.00
2022-10-03T03:59:23.946Z,100.00
2022-10-03T04:02:11.566Z,100.00
2022-10-03T04:05:25.977Z,100.00
2022-10-03T04:08:14.811Z,100.00
2022-10-03T04:10:46.201Z,100.00
2022-10-03T04:13:41.049Z,100.00
2022-10-03T04:16:44.728Z,100.00
2022-10-03T04:19:37.551Z,100.00
2022-10-03T04:22:25.481Z,100.00
2022-10-03T04:25:18.006Z,100.00
2022-10-03T04:28:18.794Z,100.00
2022-10-03T04:30:51.545Z,100.00
2022-10-03T04:33:35.651Z,100.00
2022-10-03T04:36:57.230Z,100.00
2022-10-03T04:39:30.368Z,100.00
2022-10-03T04:42:08.027Z,100.00
2022-10-03T04:44:56.618Z,100.00
2022-10-03T04:47:39.551Z,100.00
2022-10-03T04:50:11.802Z,100.00
2022-10-03T04:52:41.507Z,100.00
2022-10-03T04:55:42.233Z,100.00
2022-10-03T04:58:26.606Z,100.00
2022-10-03T05:01:12.202Z,100.00
2022-10-03T05:04:00.482Z,100.00
2022-10-03T05:06:59.016Z,100.00
2022-10-03T05:09:52.586Z,100.00
2022-10-03T05:12:48.063Z,100.00
2022-10-03T05:15:27.034Z,100.00
2022-10-03T05:18:15.809Z,100.00
2022-10-03T05:21:10.054Z,100.00
2022-10-03T05:24:10.462Z,100.00
2022-10-03T05:26:46.787Z,100.00
2022-10-03T05:29:34.935Z,100.00
2022-10-03T05:32:31.973Z,100.00
2022-10-03T05:35:13.659Z,100.00
2022-10-03T05:37:57.057Z,100.00
2022-10-03T05:40:30.350Z,100.00
2022-10-03T05:43:21.181Z,100.00
2022-10-03T05:45:54.699Z,100.00
2022-10-03T05:48:47.116Z,100.00
2022-10-03T05:51:46.997Z,100.00
2022-10-03T05:54:50.850Z,100.00
2022-10-03T05:57:23.535Z,100.00
2022-10-03T06:00:08.201Z,100.00
2022-10-03T06:03:10.664Z,100.00
2022-10-03T06:06:18.059Z,100.00
2022-10-03T06:08:55.477Z,100.00
2022-10-03T06:11:34.689Z,100.00
2022-10-03T06:14:29.037Z,100.00
2022-10-03T06:17:53.689Z,100.00
2022-10-03T06:20:28.941Z,100.00
2022-10-03T06:23:34.611Z,100.00
2022-10-03T06:26:26.056Z,100.00
2022-10-03T06:29:01.979Z,100.00
2022-10-03T06:31:49.285Z,100.00
2022-10-03T06:34:38.067Z,100.00
2022-10-03T06:37:29.293Z,100.00
2022-10-03T06:40:19.390Z,100.00
2022-10-03T06:43:10.426Z,100.00
2022-10-03T06:45:39.572Z,100.00
2022-10-03T06:49:03.978Z,100.00
2022-10-03T06:52:02.005Z,100.00
2022-10-03T06:54:46.942Z,100.00
2022-10-03T06:57:19.595Z,100.00
2022-10-03T07:00:01.608Z,100.00
2022-10-03T07:02:40.317Z,100.00
2022-10-03T07:05:43.413Z,100.00
2022-10-03T07:08:36.213Z,100.00
2022-10-03T07:11:21.122Z,100.00
2022-10-03T07:13:58.510Z,100.00
2022-10-03T07:17:04.746Z,100.00
2022-10-03T07:19:53.765Z,100.00
2022-10-03T07:22:35.670Z,100.00
2022-10-03T07:25:40.678Z,100.00
2022-10-03T07:28:38.301Z,100.00
2022-10-03T07:31:12.539Z,100.00
2022-10-03T07:34:16.581Z,100.00
2022-10-03T07:37:10.829Z,100.00
2022-10-03T07:39:56.168Z,100.00
2022-10-03T07:42:50.015Z,100.00
2022-10-03T07:45:37.444Z,100.00
2022-10-03T07:48:25.971Z,100.00
2022-10-03T07:51:27.558Z,100.00
2022-10-03T07:53:53.979Z,100.00
2022-10-03T07:56:44.329Z,100.00
2022-10-03T07:59:50.036Z,100.00
2022-10-03T08:02:37.204Z,100.00
2022-10-03T08:05:26.616Z,100.00
2022-10-03T08:08:16.633Z,100.00
2022-10-03T08:11:04.952Z,100.00
2022-10-03T08:14:00.403Z,100.00
2022-10-03T08:17:02.972Z,99.68
2022-10-03T08:19:55.305Z,99.29
2022-10-03T08:23:04.657Z,99.10
2022-10-03T08:26:11.594Z,96.97
2022-10-03T08:28:56.127Z,97.37
2022-10-03T08:31:31.058Z,97.48
2022-10-03T08:34:22.615Z,95.99
2022-10-03T08:36:54.726Z,94.75
2022-10-03T08:39:50.243Z,95.67
2022-10-03T08:42:43.934Z,95.13
2022-10-03T08:45:32.147Z,94.33
2022-10-03T08:48:34.855Z,94.20
2022-10-03T08:51:16.559Z,91.52
2022-10-03T08:54:15.683Z,91.56
2022-10-03T08:56:57.321Z,90.48
2022-10-03T08:59:37.598Z,89.59
2022-10-03T09:02:42.685Z,88.54
2022-10-03T09:05:34.686Z,88.78
2022-10-03T09:08:22.658Z,88.17
2022-10-03T09:11:16.928Z,88.81
2022-10-03T09:14:17.588Z,87.80
2022-10-03T09:17:00.317Z,87.08
2022-10-03T09:20:04.538Z,86.90
2022-10-03T09:22:45.062Z,86.24
2022-10-03T09:25:46.710Z,86.50
2022-10-03T09:28:38.376Z,85.51
2022-10-03T09:31:08.263Z,84.77
2022-10-03T09:34:02.926Z,84.78
2022-10-03T09:36:54.102Z,84.17
2022-10-03T09:39:51.555Z,82.29
2022-10-03T09:42:47.000Z,82.02
2022-10-03T09:45:22.282Z,81.65
2022-10-03T09:48:13.402Z,81.67
2022-10-03T09:50:59.255Z,82.20
2022-10-03T09:53:26.569Z,81.31
2022-10-03T09:56:14.270Z,81.60
2022-10-03T09:59:18.948Z,82.08
2022-10-03T10:02:03.958Z,83.36
2022-10-03T10:04:56.311Z,82.85
2022-10-03T10:07:44.940Z,82.38
2022-10-03T10:10:40.650Z,82.96
2022-10-03T10:14:06.113Z,82.59
2022-10-03T10:16:55.442Z,82.71
2022-10-03T10:19:34.195Z,80.69
2022-10-03T10:22:22.196Z,79.22
2022-10-03T10:25:04.614Z,78.64
2022-10-03T10:28:08.678Z,78.05
2022-10-03T10:31:03.082Z,77.07
2022-10-03T10:33:57.555Z,76.19
2022-10-03T10:36:54.933Z,74.58
2022-10-03T10:39:24.325Z,74.10
2022-10-03T10:42:05.829Z,74.98
2022-10-03T10:44:59.934Z,75.54
2022-10-03T10:48:22.173Z,75.04
2022-10-03T10:50:52.377Z,72.34
2022-10-03T10:54:03.968Z,71.71
2022-10-03T10:56:48.591Z,71.32
2022-10-03T10:59:37.214Z,70.35
2022-10-03T11:02:41.214Z,70.19
2022-10-03T11:05:42.216Z,69.56
2022-10-03T11:08:54.975Z,68.23
2022-10-03T11:11:33.021Z,67.86
2022-10-03T11:14:27.884Z,68.29
2022-10-03T11:17:14.350Z,68.24
2022-10-03T11:19:59.427Z,68.30
2022-10-03T11:23:04.857Z,69.88
2022-10-03T11:25:43.816Z,69.96
2022-10-03T11:28:41.863Z,68.87
2022-10-03T11:31:34.132Z,70.70
2022-10-03T11:34:42.511Z,70.09
2022-10-03T11:37:36.252Z,69.30
2022-10-03T11:40:24.440Z,69.50
2022-10-03T11:43:15.890Z,69.72
2022-10-03T11:46:01.019Z,69.66
2022-10-03T11:48:58.741Z,68.09
2022-10-03T11:51:53.783Z,67.84
2022-10-03T11:54:32.207Z,67.96
2022-10-03T11:57:43.728Z,68.08
2022-10-03T12:00:23.239Z,69.15
2022-10-03T12:03:08.374Z,69.00
2022-10-03T12:06:18.139Z,67.27
2022-10-03T12:09:06.505Z,67.06
2022-10-03T12:11:41.730Z,66.93
2022-10-03T12:14:44.753Z,67.04
2022-10-03T12:17:15.840Z,67.71
2022-10-03T12:19:57.721Z,66.95
2022-10-03T12:22:39.606Z,67.96
2022-10-03T12:25:23.882Z,68.07
2022-10-03T12:27:57.007Z,67.78
2022-10-03T12:30:25.776Z,67.35
2022-10-03T12:33:21.241Z,66.82
2022-10-03T12:35:56.809Z,67.38
2022-10-03T12:38:51.432Z,67.42
2022-10-03T12:41:31.852Z,67.40
2022-10-03T12:44:13.391Z,67.84
2022-10-03T12:47:09.151Z,68.22
2022-10-03T12:49:51.345Z,68.19
2022-10-03T12:52:40.453Z,67.79
2022-10-03T12:55:31.227Z,67.63
2022-10-03T12:58:22.326Z,67.25
2022-10-03T13:01:19.638Z,66.54
2022-10-03T13:04:29.982Z,67.00
2022-10-03T13:07:16.967Z,67.53
2022-10-03T13:10:32.084Z,67.48
2022-10-03T13:13:16.950Z,67.15
2022-10-03T13:15:44.636Z,67.07
2022-10-03T13:18:32.213Z,67.26
2022-10-03T13:21:03.267Z,68.02
2022-10-03T13:23:42.939Z,67.94
2022-10-03T13:26:26.443Z,68.30
2022-10-03T13:29:30.026Z,68.35
2022-10-03T13:31:56.888Z,67.38
2022-10-03T13:34:30.743Z,67.74
2022-10-03T13:37:33.749Z,67.50
2022-10-03T13:40:19.730Z,67.75
2022-10-03T13:42:53.429Z,65.96
2022-10-03T13:45:26.439Z,65.56
2022-10-03T13:48:00.681Z,64.37
2022-10-03T13:50:36.627Z,63.56
2022-10-03T13:53:43.223Z,63.52
2022-10-03T13:56:19.451Z,63.28
2022-10-03T13:59:08.208Z,63.41
2022-10-03T14:02:04.670Z,63.66
2022-10-03T14:04:38.494Z,63.77
2022-10-03T14:07:27.266Z,64.52
2022-10-03T14:10:29.645Z,64.42
2022-10-03T14:13:17.383Z,64.16
2022-10-03T14:16:16.608Z,65.42
2022-10-03T14:18:52.045Z,66.33
2022-10-03T14:21:49.846Z,66.26
2022-10-03T14:24:36.838Z,65.35
2022-10-03T14:27:17.575Z,66.25
2022-10-03T14:30:13.585Z,67.03
2022-10-03T14:32:54.066Z,67.07
2022-10-03T14:35:33.478Z,67.94
2022-10-03T14:38:50.814Z,68.52
2022-10-03T14:41:21.512Z,68.16
2022-10-03T14:43:59.859Z,68.43
2022-10-03T14:47:00.778Z,68.41
2022-10-03T14:49:53.585Z,68.45
2022-10-03T14:52:28.752Z,68.17
2022-10-03T14:54:57.601Z,68.50
2022-10-03T14:57:39.635Z,68.25
2022-10-03T15:00:35.710Z,69.13
2022-10-03T15:03:17.486Z,68.60
2022-10-03T15:06:19.163Z,68.03
2022-10-03T15:08:49.743Z,68.07
2022-10-03T15:11:35.355Z,68.60
2022-10-03T15:14:08.800Z,66.98
2022-10-03T15:16:48.215Z,67.16
2022-10-03T15:19:23.206Z,67.48
2022-10-03T15:21:52.971Z,67.15
2022-10-03T15:24:25.260Z,67.10
2022-10-03T15:27:06.376Z,67.37
2022-10-03T15:29:34.531Z,67.44
2022-10-03T15:32:04.120Z,67.59
2022-10-03T15:34:39.652Z,68.26
2022-10-03T15:37:17.502Z,67.87
2022-10-03T15:39:45.765Z,68.70
2022-10-03T15:42:18.082Z,69.04
2022-10-03T15:44:51.535Z,69.37
2022-10-03T15:47:28.503Z,69.95
2022-10-03T15:50:04.669Z,70.16
2022-10-03T15:52:41.417Z,70.61
2022-10-03T15:55:15.694Z,71.16
2022-10-03T15:57:48.015Z,71.33
2022-10-03T16:00:26.400Z,71.95
2022-10-03T16:03:34.153Z,72.33
2022-10-03T16:06:04.991Z,72.56
2022-10-03T16:08:36.143Z,72.47
2022-10-03T16:11:14.414Z,72.69
2022-10-03T16:13:45.967Z,72.86
2022-10-03T16:16:42.772Z,72.54
2022-10-03T16:19:31.884Z,73.22
2022-10-03T16:22:21.179Z,72.88
2022-10-03T16:25:29.036Z,73.17
2022-10-03T16:28:04.818Z,73.29
2022-10-03T16:30:42.406Z,73.15
2022-10-03T16:33:31.211Z,73.62
2022-10-03T16:36:03.293Z,73.83
2022-10-03T16:38:39.912Z,74.11
2022-10-03T16:41:16.005Z,73.97
2022-10-03T16:43:57.106Z,74.59
2022-10-03T16:46:25.611Z,74.41
2022-10-03T16:49:14.833Z,74.96
2022-10-03T16:51:45.893Z,75.75
2022-10-03T16:54:18.628Z,75.98
2022-10-03T16:57:00.993Z,75.54
2022-10-03T16:59:30.618Z,76.31
2022-10-03T17:02:04.021Z,76.93
2022-10-03T17:04:39.105Z,77.25
2022-10-03T17:07:16.105Z,77.15
2022-10-03T17:09:47.818Z,78.34
2022-10-03T17:12:23.873Z,78.66
2022-10-03T17:14:53.304Z,78.79
2022-10-03T17:18:00.230Z,78.60
2022-10-03T17:20:52.229Z,78.83
2022-10-03T17:23:49.269Z,79.01
2022-10-03T17:26:30.892Z,79.42
2022-10-03T17:29:08.951Z,79.36
2022-10-03T17:32:19.169Z,80.16
2022-10-03T17:34:56.529Z,79.28
2022-10-03T17:37:35.042Z,79.93
2022-10-03T17:40:35.799Z,80.27
2022-10-03T17:43:14.461Z,80.39
2022-10-03T17:46:12.675Z,80.86
2022-10-03T17:49:06.058Z,81.11
2022-10-03T17:51:55.138Z,81.32
2022-10-03T17:54:29.648Z,81.64
2022-10-03T17:57:16.452Z,82.49
2022-10-03T18:00:08.843Z,82.41
2022-10-03T18:02:43.996Z,82.76
2022-10-03T18:05:28.438Z,83.41
2022-10-03T18:07:57.490Z,83.79
2022-10-03T18:10:29.437Z,84.13
2022-10-03T18:12:59.997Z,84.16
2022-10-03T18:15:41.150Z,84.58
2022-10-03T18:18:34.674Z,84.69
2022-10-03T18:21:27.555Z,84.76
2022-10-03T18:23:55.462Z,85.18
2022-10-03T18:26:41.421Z,86.45
2022-10-03T18:29:18.687Z,86.25
2022-10-03T18:31:53.617Z,85.58
2022-10-03T18:34:27.225Z,86.16
2022-10-03T18:36:55.667Z,87.30
2022-10-03T18:39:28.647Z,87.38
2022-10-03T18:41:58.656Z,87.72
2022-10-03T18:44:28.781Z,87.68
2022-10-03T18:46:57.974Z,88.04
2022-10-03T18:49:34.330Z,88.65
2022-10-03T18:52:22.723Z,88.90
2022-10-03T18:55:02.378Z,89.06
2022-10-03T18:57:41.195Z,88.81
2022-10-03T19:00:09.419Z,89.56
2022-10-03T19:02:41.580Z,89.67
2022-10-03T19:05:20.694Z,89.47
2022-10-03T19:08:01.106Z,89.86
2022-10-03T19:10:40.935Z,89.76
2022-10-03T19:13:24.666Z,89.80
2022-10-03T19:16:17.689Z,90.18
2022-10-03T19:19:03.639Z,90.11
2022-10-03T19:21:37.430Z,90.45
2022-10-03T19:24:53.406Z,90.42
2022-10-03T19:27:19.217Z,90.60
2022-10-03T19:29:49.367Z,90.67
2022-10-03T19:32:24.326Z,90.98
2022-10-03T19:34:52.938Z,91.64
2022-10-03T19:37:27.783Z,91.32
2022-10-03T19:39:54.398Z,91.63
2022-10-03T19:42:44.872Z,91.39
2022-10-03T19:45:13.302Z,91.89
2022-10-03T19:47:52.143Z,91.88
2022-10-03T19:50:28.618Z,91.92
2022-10-03T19:52:56.274Z,92.13
2022-10-03T19:55:24.123Z,92.57
2022-10-03T19:57:58.900Z,92.73
2022-10-03T20:00:38.323Z,92.58
2022-10-03T20:03:06.955Z,92.89
2022-10-03T20:05:42.056Z,92.98
2022-10-03T20:08:21.342Z,93.25
2022-10-03T20:10:52.797Z,93.24
2022-10-03T20:13:19.575Z,93.08
2022-10-03T20:15:51.805Z,94.19
2022-10-03T20:18:25.233Z,94.57
2022-10-03T20:20:54.912Z,94.40
2022-10-03T20:23:26.228Z,94.41
2022-10-03T20:26:10.334Z,94.32
2022-10-03T20:29:04.861Z,94.92
2022-10-03T20:31:33.167Z,95.47
2022-10-03T20:34:04.434Z,95.06
2022-10-03T20:36:35.488Z,95.11
2022-10-03T20:39:07.746Z,95.19
2022-10-03T20:41:53.867Z,95.26
2022-10-03T20:44:30.094Z,95.27
2022-10-03T20:47:07.367Z,95.48
2022-10-03T20:49:50.013Z,95.04
2022-10-03T20:52:22.185Z,95.47
2022-10-03T20:54:57.640Z,94.98
2022-10-03T20:57:32.794Z,95.87
2022-10-03T21:00:11.569Z,95.88
2022-10-03T21:02:49.573Z,96.01
2022-10-03T21:05:45.371Z,95.60
2022-10-03T21:08:29.362Z,96.25
2022-10-03T21:10:59.950Z,96.34
2022-10-03T21:13:51.930Z,96.48
2022-10-03T21:16:27.370Z,95.90
2022-10-03T21:18:59.072Z,96.08
2022-10-03T21:21:33.066Z,95.97
2022-10-03T21:24:24.422Z,96.36
2022-10-03T21:27:13.005Z,96.94
2022-10-03T21:29:41.620Z,97.08
2022-10-03T21:32:08.533Z,97.14
2022-10-03T21:34:55.403Z,96.83
2022-10-03T21:37:37.458Z,97.54
2022-10-03T21:40:08.902Z,97.80
2022-10-03T21:43:05.969Z,98.50
2022-10-03T21:45:57.215Z,98.49
2022-10-03T21:48:48.222Z,98.82
2022-10-03T21:51:42.672Z,99.06
2022-10-03T21:54:46.854Z,98.73
2022-10-03T21:57:28.478Z,98.79
2022-10-03T22:00:13.664Z,99.20
2022-10-03T22:02:47.852Z,99.47
2022-10-03T22:05:47.027Z,99.33
2022-10-03T22:08:14.698Z,99.76
2022-10-03T22:10:55.967Z,99.88
2022-10-03T22:13:31.536Z,99.37
2022-10-03T22:16:14.228Z,99.01
2022-10-03T22:18:59.225Z,99.20
2022-10-03T22:21:32.075Z,99.21
2022-10-03T22:24:22.261Z,99.15
2022-10-03T22:26:57.527Z,99.51
2022-10-03T22:29:42.798Z,99.32
2022-10-03T22:32:27.353Z,98.85
2022-10-03T22:35:12.408Z,99.16
2022-10-03T22:37:39.615Z,99.14
2022-10-03T22:40:06.930Z,99.42
2022-10-03T22:42:42.436Z,99.13
2022-10-03T22:45:35.944Z,98.89
2022-10-03T22:48:10.656Z,98.71
2022-10-03T22:50:41.654Z,98.75
2022-10-03T22:53:13.929Z,98.36
2022-10-03T22:55:44.171Z,98.40
2022-10-03T22:58:12.646Z,98.54
2022-10-03T23:00:42.650Z,98.77
2022-10-03T23:03:14.841Z,98.68
2022-10-03T23:05:53.573Z,98.59
2022-10-03T23:08:35.275Z,98.56
2022-10-03T23:11:09.498Z,98.73
2022-10-03T23:13:44.011Z,98.93
2022-10-03T23:16:17.765Z,99.28
2022-10-03T23:18:59.440Z,99.39
2022-10-03T23:21:27.316Z,99.36
2022-10-03T23:24:22.659Z,98.71
2022-10-03T23:27:03.629Z,98.86
2022-10-03T23:29:30.179Z,98.75
2022-10-03T23:32:04.368Z,98.98
2022-10-03T23:34:34.516Z,99.37
2022-10-03T23:37:13.391Z,99.43
2022-10-03T23:39:42.413Z,99.25
2022-10-03T23:42:09.987Z,99.78
2022-10-03T23:44:49.627Z,99.73
2022-10-03T23:47:19.703Z,100.00
2022-10-03T23:49:48.419Z,99.59
2022-10-03T23:52:26.674Z,99.95
2022-10-03T23:54:58.347Z,99.87
2022-10-03T23:57:34.303Z,99.60
